createdAt,value
2017-10-22T00:00:24.459Z,89.18
2017-10-22T00:02:50.725Z,88.90
2017-10-22T00:05:16.998Z,88.96
2017-10-22T00:07:43.282Z,88.68
2017-10-22T00:10:09.580Z,89.70
2017-10-22T00:12:35.876Z,90.56
2017-10-22T00:15:02.159Z,89.59
2017-10-22T00:17:28.457Z,90.23
2017-10-22T00:19:54.715Z,89.66
2017-10-22T00:22:20.977Z,89.79
2017-10-22T00:24:47.245Z,89.52
2017-10-22T00:27:13.528Z,89.16
2017-10-22T00:29:39.822Z,90.06
2017-10-22T00:32:06.119Z,90.23
2017-10-22T00:34:32.418Z,90.14
2017-10-22T00:36:58.705Z,88.60
2017-10-22T00:39:24.972Z,89.07
2017-10-22T00:41:51.281Z,89.38
2017-10-22T00:44:17.551Z,88.81
2017-10-22T00:46:43.829Z,89.23
2017-10-22T00:49:10.102Z,89.53
2017-10-22T00:51:36.374Z,89.36
2017-10-22T00:54:02.679Z,89.42
2017-10-22T00:56:28.965Z,90.22
2017-10-22T00:58:55.231Z,90.39
2017-10-22T01:01:21.518Z,90.50
2017-10-22T01:03:47.811Z,90.08
2017-10-22T01:06:14.094Z,90.11
2017-10-22T01:08:40.364Z,90.20
2017-10-22T01:11:06.641Z,90.51
2017-10-22T01:13:32.926Z,90.55
2017-10-22T01:15:59.206Z,91.03
2017-10-22T01:18:25.486Z,90.73
2017-10-22T01:20:51.758Z,90.36
2017-10-22T01:23:18.043Z,90.38
2017-10-22T01:25:44.318Z,90.75
2017-10-22T01:28:10.601Z,90.86
2017-10-22T01:30:36.895Z,90.56
2017-10-22T01:33:03.187Z,90.73
2017-10-22T01:35:29.475Z,90.95
2017-10-22T01:37:55.745Z,90.35
2017-10-22T01:40:22.023Z,89.94
2017-10-22T01:42:48.337Z,90.16
2017-10-22T01:45:14.603Z,90.59
2017-10-22T01:47:40.915Z,91.03
2017-10-22T01:50:07.187Z,90.91
2017-10-22T01:52:33.465Z,91.10
2017-10-22T01:54:59.765Z,90.75
2017-10-22T01:57:26.053Z,90.90
2017-10-22T01:59:52.320Z,91.00
2017-10-22T02:02:18.614Z,90.82
2017-10-22T02:04:44.879Z,90.36
2017-10-22T02:07:11.167Z,89.95
2017-10-22T02:09:37.446Z,90.33
2017-10-22T02:12:03.719Z,90.31
2017-10-22T02:14:29.991Z,90.70
2017-10-22T02:16:56.276Z,90.44
2017-10-22T02:19:22.621Z,90.22
2017-10-22T02:21:48.886Z,90.58
2017-10-22T02:24:15.153Z,91.34
2017-10-22T02:26:41.429Z,92.71
2017-10-22T02:29:07.738Z,91.88
2017-10-22T02:31:34.023Z,90.99
2017-10-22T02:34:00.306Z,90.06
2017-10-22T02:36:26.571Z,90.51
2017-10-22T02:38:52.853Z,90.67
2017-10-22T02:41:19.111Z,91.13
2017-10-22T02:43:45.425Z,91.11
2017-10-22T02:46:11.715Z,91.31
2017-10-22T02:48:37.986Z,90.99
2017-10-22T02:51:04.397Z,90.76
2017-10-22T02:53:30.689Z,90.94
2017-10-22T02:55:56.957Z,91.51
2017-10-22T02:58:23.247Z,91.66
2017-10-22T03:00:49.514Z,91.76
2017-10-22T03:03:15.817Z,91.73
2017-10-22T03:05:42.089Z,91.77
2017-10-22T03:08:08.399Z,91.01
2017-10-22T03:10:34.684Z,91.16
2017-10-22T03:13:00.966Z,90.85
2017-10-22T03:15:27.249Z,92.19
2017-10-22T03:17:53.536Z,93.74
2017-10-22T03:20:19.871Z,94.00
2017-10-22T03:22:46.145Z,92.96
2017-10-22T03:25:12.420Z,92.54
2017-10-22T03:27:38.689Z,92.16
2017-10-22T03:30:04.967Z,92.07
2017-10-22T03:32:31.297Z,92.31
2017-10-22T03:34:57.575Z,91.33
2017-10-22T03:37:23.863Z,91.28
2017-10-22T03:39:50.294Z,90.89
2017-10-22T03:42:16.578Z,90.83
2017-10-22T03:44:42.849Z,91.39
2017-10-22T03:47:09.149Z,91.42
2017-10-22T03:49:35.446Z,91.81
2017-10-22T03:52:01.723Z,91.26
2017-10-22T03:54:27.989Z,91.84
2017-10-22T03:56:54.276Z,91.62
2017-10-22T03:59:20.563Z,92.07
2017-10-22T04:01:46.840Z,91.47
2017-10-22T04:04:13.132Z,91.53
2017-10-22T04:06:39.420Z,92.19
2017-10-22T04:09:05.755Z,91.37
2017-10-22T04:11:32.035Z,91.50
2017-10-22T04:13:58.322Z,91.60
2017-10-22T04:16:24.617Z,92.01
2017-10-22T04:18:50.897Z,91.92
2017-10-22T04:21:17.212Z,92.63
2017-10-22T04:23:43.536Z,93.19
2017-10-22T04:26:09.834Z,93.17
2017-10-22T04:28:36.124Z,93.09
2017-10-22T04:31:02.387Z,93.27
2017-10-22T04:33:28.694Z,92.55
2017-10-22T04:35:54.982Z,92.71
2017-10-22T04:38:21.261Z,92.53
2017-10-22T04:40:47.556Z,92.12
2017-10-22T04:43:13.814Z,91.83
2017-10-22T04:45:40.098Z,92.55
2017-10-22T04:48:06.405Z,93.27
2017-10-22T04:50:32.721Z,93.27
2017-10-22T04:52:58.990Z,93.47
2017-10-22T04:55:25.249Z,93.48
2017-10-22T04:57:51.580Z,92.55
2017-10-22T05:00:17.857Z,91.14
2017-10-22T05:02:44.132Z,89.26
2017-10-22T05:05:10.409Z,86.94
2017-10-22T05:07:36.672Z,83.69
2017-10-22T05:10:02.986Z,79.97
2017-10-22T05:12:29.267Z,77.37
2017-10-22T05:14:55.522Z,75.03
2017-10-22T05:17:21.808Z,73.69
2017-10-22T05:19:48.219Z,70.55
2017-10-22T05:22:14.501Z,70.24
2017-10-22T05:24:40.786Z,68.35
2017-10-22T05:27:07.068Z,65.80
2017-10-22T05:29:33.343Z,63.15
2017-10-22T05:31:59.621Z,63.11
2017-10-22T05:34:25.932Z,61.26
2017-10-22T05:36:52.212Z,61.21
2017-10-22T05:39:18.485Z,59.88
2017-10-22T05:41:44.743Z,58.02
2017-10-22T05:44:10.994Z,57.42
2017-10-22T05:46:37.271Z,56.24
2017-10-22T05:49:03.526Z,55.90
2017-10-22T05:51:29.776Z,55.83
2017-10-22T05:53:56.031Z,54.90
2017-10-22T05:56:22.463Z,55.18
2017-10-22T05:58:48.755Z,52.70
2017-10-22T06:01:15.014Z,52.51
2017-10-22T06:03:41.275Z,50.79
2017-10-22T06:06:07.537Z,50.51
2017-10-22T06:08:33.796Z,50.36
2017-10-22T06:11:00.125Z,48.87
2017-10-22T06:13:26.424Z,47.34
2017-10-22T06:15:52.690Z,46.35
2017-10-22T06:18:18.943Z,47.44
2017-10-22T06:20:45.205Z,45.89
2017-10-22T06:23:11.464Z,45.25
2017-10-22T06:25:37.745Z,43.34
2017-10-22T06:28:04.003Z,43.50
2017-10-22T06:30:30.298Z,44.62
2017-10-22T06:32:56.585Z,42.93
2017-10-22T06:35:22.905Z,42.36
2017-10-22T06:37:49.180Z,43.39
2017-10-22T06:40:15.450Z,42.18
2017-10-22T06:42:41.735Z,42.49
2017-10-22T06:45:08.005Z,41.49
2017-10-22T06:47:34.337Z,40.53
2017-10-22T06:50:00.610Z,41.30
2017-10-22T06:52:26.887Z,41.14
2017-10-22T06:54:53.209Z,41.75
2017-10-22T06:57:19.475Z,41.11
2017-10-22T06:59:45.742Z,41.04
2017-10-22T07:02:12.005Z,42.27
2017-10-22T07:04:38.279Z,41.03
2017-10-22T07:07:04.559Z,41.01
2017-10-22T07:09:30.847Z,40.67
2017-10-22T07:11:57.152Z,40.95
2017-10-22T07:14:23.412Z,37.84
2017-10-22T07:16:49.682Z,36.86
2017-10-22T07:19:15.966Z,37.50
2017-10-22T07:21:42.239Z,37.31
2017-10-22T07:24:08.516Z,37.43
2017-10-22T07:26:34.786Z,36.14
2017-10-22T07:29:01.180Z,35.11
2017-10-22T07:31:27.457Z,33.98
2017-10-22T07:33:53.765Z,32.89
2017-10-22T07:36:20.041Z,32.39
2017-10-22T07:38:46.310Z,32.72
2017-10-22T07:41:12.585Z,35.27
2017-10-22T07:43:38.888Z,33.51
2017-10-22T07:46:05.149Z,33.41
2017-10-22T07:48:31.402Z,31.84
2017-10-22T07:50:57.691Z,31.35
2017-10-22T07:53:23.953Z,31.07
2017-10-22T07:55:50.253Z,30.53
2017-10-22T07:58:16.660Z,31.67
2017-10-22T08:00:42.918Z,31.62
2017-10-22T08:03:09.202Z,30.48
2017-10-22T08:05:35.442Z,31.78
2017-10-22T08:08:01.760Z,32.58
2017-10-22T08:10:28.024Z,31.06
2017-10-22T08:12:54.276Z,31.45
2017-10-22T08:15:20.521Z,29.97
2017-10-22T08:17:46.797Z,30.58
2017-10-22T08:20:13.080Z,30.81
2017-10-22T08:22:39.741Z,29.88
2017-10-22T08:25:05.997Z,30.20
2017-10-22T08:27:32.605Z,29.75
2017-10-22T08:29:58.873Z,29.53
2017-10-22T08:32:25.462Z,28.30
2017-10-22T08:34:51.734Z,31.52
2017-10-22T08:37:18.004Z,29.44
2017-10-22T08:39:44.269Z,29.04
2017-10-22T08:42:10.572Z,29.24
2017-10-22T08:44:36.871Z,29.78
2017-10-22T08:47:03.167Z,31.19
2017-10-22T08:49:29.480Z,29.88
2017-10-22T08:51:55.739Z,30.65
2017-10-22T08:54:22.009Z,30.88
2017-10-22T08:56:48.276Z,29.79
2017-10-22T08:59:14.554Z,28.89
2017-10-22T09:01:40.821Z,29.20
2017-10-22T09:04:07.128Z,29.36
2017-10-22T09:06:33.393Z,28.94
2017-10-22T09:08:59.726Z,27.29
2017-10-22T09:11:26.003Z,26.48
2017-10-22T09:13:52.258Z,26.94
2017-10-22T09:16:18.575Z,27.15
2017-10-22T09:18:44.843Z,26.93
2017-10-22T09:21:11.130Z,29.35
2017-10-22T09:23:37.459Z,27.48
2017-10-22T09:26:03.718Z,28.56
2017-10-22T09:28:30.033Z,27.11
2017-10-22T09:30:56.451Z,26.08
2017-10-22T09:33:22.760Z,28.58
2017-10-22T09:35:49.115Z,29.35
2017-10-22T09:38:15.382Z,27.93
2017-10-22T09:40:41.839Z,28.83
2017-10-22T09:43:08.165Z,30.16
2017-10-22T09:45:34.473Z,28.19
2017-10-22T09:48:00.745Z,27.35
2017-10-22T09:50:27.050Z,26.85
2017-10-22T09:52:53.295Z,26.09
2017-10-22T09:55:19.598Z,27.64
2017-10-22T09:57:45.965Z,29.13
2017-10-22T10:00:12.222Z,29.75
2017-10-22T10:02:38.485Z,27.62
2017-10-22T10:05:04.997Z,27.17
2017-10-22T10:07:31.357Z,26.60
2017-10-22T10:09:57.625Z,27.31
2017-10-22T10:12:23.884Z,26.66
2017-10-22T10:14:50.341Z,25.65
2017-10-22T10:17:16.618Z,24.64
2017-10-22T10:19:43.600Z,24.21
2017-10-22T10:22:09.967Z,27.36
2017-10-22T10:24:36.258Z,29.68
2017-10-22T10:27:02.549Z,31.26
2017-10-22T10:29:28.869Z,32.57
2017-10-22T10:31:55.170Z,31.43
2017-10-22T10:34:21.428Z,30.43
2017-10-22T10:36:47.708Z,32.73
2017-10-22T10:39:13.979Z,33.59
2017-10-22T10:41:40.264Z,29.16
2017-10-22T10:44:06.576Z,28.14
2017-10-22T10:46:32.828Z,27.68
2017-10-22T10:48:59.112Z,27.85
2017-10-22T10:51:25.435Z,27.15
2017-10-22T10:53:51.706Z,26.23
2017-10-22T10:56:18.090Z,26.74
2017-10-22T10:58:44.385Z,29.11
2017-10-22T11:01:10.700Z,28.05
2017-10-22T11:03:37.019Z,26.97
2017-10-22T11:06:03.291Z,27.24
2017-10-22T11:08:29.557Z,27.70
2017-10-22T11:10:55.822Z,26.71
2017-10-22T11:13:22.096Z,26.05
2017-10-22T11:15:48.438Z,25.50
2017-10-22T11:18:14.711Z,25.89
2017-10-22T11:20:40.992Z,24.98
2017-10-22T11:23:07.281Z,26.18
2017-10-22T11:25:33.538Z,25.55
2017-10-22T11:27:59.853Z,25.94
2017-10-22T11:30:26.136Z,25.20
2017-10-22T11:32:52.403Z,27.46
2017-10-22T11:35:18.673Z,25.42
2017-10-22T11:37:44.978Z,27.49
2017-10-22T11:40:11.456Z,27.94
2017-10-22T11:42:37.714Z,27.60
2017-10-22T11:45:03.965Z,25.82
2017-10-22T11:47:30.256Z,24.63
2017-10-22T11:49:56.515Z,25.12
2017-10-22T11:52:22.807Z,26.91
2017-10-22T11:54:49.081Z,27.39
2017-10-22T11:57:15.341Z,27.43
2017-10-22T11:59:41.595Z,29.46
2017-10-22T12:02:07.860Z,28.98
2017-10-22T12:04:34.120Z,27.13
2017-10-22T12:07:00.398Z,25.47
2017-10-22T12:09:26.664Z,23.93
2017-10-22T12:11:52.964Z,24.25
2017-10-22T12:14:19.208Z,25.38
2017-10-22T12:16:45.470Z,27.70
2017-10-22T12:19:11.744Z,27.22
2017-10-22T12:21:38.039Z,28.62
2017-10-22T12:24:04.323Z,27.65
2017-10-22T12:26:30.594Z,26.28
2017-10-22T12:28:56.833Z,26.42
2017-10-22T12:31:23.087Z,25.75
2017-10-22T12:33:49.358Z,25.77
2017-10-22T12:36:15.620Z,26.87
2017-10-22T12:38:42.139Z,26.86
2017-10-22T12:41:08.758Z,26.98
2017-10-22T12:43:35.415Z,27.33
2017-10-22T12:46:02.037Z,26.78
2017-10-22T12:48:28.692Z,26.45
2017-10-22T12:50:55.354Z,26.89
2017-10-22T12:53:21.782Z,27.26
2017-10-22T12:55:48.082Z,26.52
2017-10-22T13:00:45.980Z,25.59
2017-10-22T13:03:12.261Z,26.30
2017-10-22T13:05:38.537Z,27.96
2017-10-22T13:08:04.821Z,28.72
2017-10-22T13:10:31.092Z,28.23
2017-10-22T13:12:57.550Z,27.34
2017-10-22T13:15:23.972Z,27.35
2017-10-22T13:17:50.254Z,27.92
2017-10-22T13:20:16.519Z,28.67
2017-10-22T13:22:42.762Z,28.90
2017-10-22T13:25:09.054Z,29.84
2017-10-22T13:27:35.328Z,30.65
2017-10-22T13:30:01.760Z,31.06
2017-10-22T13:32:28.009Z,30.70
2017-10-22T13:34:54.263Z,31.46
2017-10-22T13:37:20.601Z,32.57
2017-10-22T13:39:46.878Z,32.23
2017-10-22T13:42:13.141Z,33.16
2017-10-22T13:44:39.399Z,33.88
2017-10-22T13:47:05.702Z,34.64
2017-10-22T13:49:32.002Z,35.13
2017-10-22T13:51:58.307Z,35.69
2017-10-22T13:54:24.597Z,36.14
2017-10-22T13:56:50.874Z,36.44
2017-10-22T13:59:17.190Z,36.52
2017-10-22T14:01:43.507Z,37.25
2017-10-22T14:04:09.770Z,38.15
2017-10-22T14:06:36.047Z,39.65
2017-10-22T14:09:02.352Z,41.44
2017-10-22T14:11:28.660Z,43.23
2017-10-22T14:13:54.971Z,44.42
2017-10-22T14:16:21.318Z,44.84
2017-10-22T14:18:47.597Z,44.61
2017-10-22T14:21:13.885Z,46.63
2017-10-22T14:23:40.158Z,46.42
2017-10-22T14:26:06.436Z,47.34
2017-10-22T14:28:32.718Z,47.38
2017-10-22T14:30:58.983Z,47.42
2017-10-22T14:33:25.248Z,48.17
2017-10-22T14:35:51.518Z,49.24
2017-10-22T14:38:17.802Z,49.36
2017-10-22T14:40:44.163Z,49.96
2017-10-22T14:43:10.660Z,51.13
2017-10-22T14:45:36.945Z,53.18
2017-10-22T14:48:03.211Z,53.93
2017-10-22T14:50:29.476Z,54.24
2017-10-22T14:52:55.753Z,54.96
2017-10-22T14:55:22.227Z,54.66
2017-10-22T14:57:48.536Z,56.36
2017-10-22T15:00:14.833Z,56.35
2017-10-22T15:02:41.107Z,56.79
2017-10-22T15:05:07.378Z,57.49
2017-10-22T15:07:33.654Z,59.19
2017-10-22T15:09:59.921Z,60.07
2017-10-22T15:12:26.176Z,61.02
2017-10-22T15:14:52.427Z,61.89
2017-10-22T15:17:18.698Z,62.23
2017-10-22T15:19:44.983Z,62.19
2017-10-22T15:22:11.259Z,63.29
2017-10-22T15:24:37.511Z,64.58
2017-10-22T15:27:03.821Z,65.06
2017-10-22T15:29:30.063Z,66.26
2017-10-22T15:31:56.332Z,67.32
2017-10-22T15:34:22.706Z,67.15
2017-10-22T15:36:48.967Z,64.78
2017-10-22T15:39:15.268Z,65.99
2017-10-22T15:41:41.543Z,65.45
2017-10-22T15:44:07.858Z,64.72
2017-10-22T15:46:34.115Z,64.98
2017-10-22T15:49:00.360Z,67.20
2017-10-22T15:51:26.893Z,65.87
2017-10-22T15:53:53.161Z,65.25
2017-10-22T15:56:19.431Z,65.60
2017-10-22T15:58:45.689Z,66.59
2017-10-22T16:01:11.957Z,65.65
2017-10-22T16:03:38.371Z,66.16
2017-10-22T16:06:04.623Z,65.78
2017-10-22T16:08:30.881Z,67.05
2017-10-22T16:10:57.156Z,67.38
2017-10-22T16:13:23.430Z,68.80
2017-10-22T16:15:49.743Z,67.94
2017-10-22T16:18:16.013Z,66.56
2017-10-22T16:20:42.260Z,69.02
2017-10-22T16:23:08.555Z,69.83
2017-10-22T16:25:34.796Z,69.68
2017-10-22T16:28:01.062Z,70.74
2017-10-22T16:30:27.345Z,71.23
2017-10-22T16:32:53.627Z,72.17
2017-10-22T16:35:19.895Z,73.07
2017-10-22T16:37:46.164Z,72.46
2017-10-22T16:40:12.431Z,73.62
2017-10-22T16:42:38.716Z,73.39
2017-10-22T16:45:04.976Z,73.97
2017-10-22T16:47:31.268Z,73.49
2017-10-22T16:49:57.639Z,74.51
2017-10-22T16:52:23.925Z,75.52
2017-10-22T16:54:50.210Z,76.06
2017-10-22T16:57:16.500Z,77.28
2017-10-22T16:59:42.844Z,77.83
2017-10-22T17:02:09.100Z,76.98
2017-10-22T17:04:35.358Z,78.75
2017-10-22T17:07:01.617Z,77.69
2017-10-22T17:09:27.884Z,76.24
2017-10-22T17:11:54.149Z,78.11
2017-10-22T17:14:20.400Z,77.44
2017-10-22T17:16:46.648Z,78.07
2017-10-22T17:19:12.940Z,78.40
2017-10-22T17:21:39.204Z,79.79
2017-10-22T17:24:05.592Z,79.75
2017-10-22T17:26:31.869Z,79.07
2017-10-22T17:28:58.137Z,79.38
2017-10-22T17:31:24.411Z,79.50
2017-10-22T17:33:50.667Z,79.64
2017-10-22T17:36:16.924Z,79.46
2017-10-22T17:38:43.202Z,79.47
2017-10-22T17:41:09.462Z,79.00
2017-10-22T17:43:35.727Z,79.58
2017-10-22T17:46:02.013Z,81.12
2017-10-22T17:48:28.279Z,79.81
2017-10-22T17:50:54.599Z,81.37
2017-10-22T17:53:20.871Z,79.79
2017-10-22T17:55:47.124Z,80.29
2017-10-22T17:58:13.380Z,80.86
2017-10-22T18:00:39.639Z,79.31
2017-10-22T18:03:05.939Z,80.00
2017-10-22T18:05:32.194Z,80.98
2017-10-22T18:07:58.614Z,81.10
2017-10-22T18:10:24.906Z,81.11
2017-10-22T18:12:51.168Z,81.77
2017-10-22T18:15:17.434Z,81.46
2017-10-22T18:17:43.699Z,81.73
2017-10-22T18:20:09.959Z,83.06
2017-10-22T18:22:36.229Z,82.39
2017-10-22T18:25:02.511Z,82.91
2017-10-22T18:27:28.853Z,82.50
2017-10-22T18:29:55.131Z,82.71
2017-10-22T18:32:21.415Z,82.72
2017-10-22T18:34:47.710Z,83.20
2017-10-22T18:37:13.990Z,82.75
2017-10-22T18:39:40.282Z,83.33
2017-10-22T18:42:06.553Z,83.12
2017-10-22T18:44:32.830Z,83.13
2017-10-22T18:46:59.103Z,83.59
2017-10-22T18:49:25.420Z,83.56
2017-10-22T18:51:51.687Z,81.88
2017-10-22T18:54:17.956Z,82.77
2017-10-22T18:56:44.227Z,82.43
2017-10-22T18:59:10.547Z,82.05
2017-10-22T19:01:36.846Z,82.14
2017-10-22T19:04:03.130Z,83.22
2017-10-22T19:06:29.384Z,82.72
2017-10-22T19:08:55.639Z,83.49
2017-10-22T19:11:21.905Z,83.37
2017-10-22T19:13:48.172Z,83.96
2017-10-22T19:16:14.443Z,83.88
2017-10-22T19:18:40.766Z,82.99
2017-10-22T19:21:07.030Z,84.26
2017-10-22T19:23:33.291Z,84.25
2017-10-22T19:25:59.579Z,84.78
2017-10-22T19:28:25.872Z,85.37
2017-10-22T19:30:52.203Z,86.27
2017-10-22T19:33:18.469Z,84.53
2017-10-22T19:35:44.721Z,86.29
2017-10-22T19:38:10.979Z,85.86
2017-10-22T19:40:37.225Z,85.29
2017-10-22T19:43:03.499Z,84.67
2017-10-22T19:45:29.770Z,84.71
2017-10-22T19:47:56.030Z,84.64
2017-10-22T19:50:22.290Z,85.39
2017-10-22T19:52:48.545Z,85.77
2017-10-22T19:55:14.846Z,86.32
2017-10-22T19:57:41.112Z,86.62
2017-10-22T20:00:07.546Z,86.45
2017-10-22T20:02:33.831Z,88.26
2017-10-22T20:05:00.094Z,87.31
2017-10-22T20:07:26.383Z,87.59
2017-10-22T20:09:52.659Z,87.25
2017-10-22T20:12:18.910Z,87.11
2017-10-22T20:14:45.183Z,86.81
2017-10-22T20:17:11.472Z,87.52
2017-10-22T20:19:37.922Z,86.78
2017-10-22T20:22:04.194Z,86.31
2017-10-22T20:24:30.445Z,86.83
2017-10-22T20:26:56.695Z,86.59
2017-10-22T20:29:22.950Z,87.27
2017-10-22T20:31:49.339Z,87.40
2017-10-22T20:34:15.589Z,87.64
2017-10-22T20:36:41.847Z,87.76
2017-10-22T20:39:08.090Z,88.10
2017-10-22T20:41:34.360Z,87.98
2017-10-22T20:44:00.662Z,87.09
2017-10-22T20:46:26.928Z,87.03
2017-10-22T20:48:53.208Z,87.74
2017-10-22T20:51:19.482Z,87.00
2017-10-22T20:53:45.737Z,87.48
2017-10-22T20:56:12.082Z,86.38
2017-10-22T20:58:38.374Z,86.75
2017-10-22T21:01:04.647Z,86.46
2017-10-22T21:03:30.948Z,87.29
2017-10-22T21:05:57.219Z,86.98
2017-10-22T21:08:23.564Z,87.33
2017-10-22T21:10:49.819Z,87.30
2017-10-22T21:13:16.102Z,87.74
2017-10-22T21:15:42.374Z,87.59
2017-10-22T21:18:08.655Z,87.67
2017-10-22T21:20:34.961Z,87.75
2017-10-22T21:23:01.220Z,87.52
2017-10-22T21:25:27.498Z,87.21
2017-10-22T21:27:53.803Z,88.12
2017-10-22T21:30:20.076Z,88.35
2017-10-22T21:32:46.385Z,88.51
2017-10-22T21:35:12.657Z,88.02
2017-10-22T21:37:38.916Z,87.98
2017-10-22T21:40:05.375Z,88.15
2017-10-22T21:42:31.646Z,89.12
2017-10-22T21:44:58.153Z,88.54
2017-10-22T21:47:24.437Z,88.64
2017-10-22T21:49:50.705Z,89.02
2017-10-22T21:52:16.982Z,88.64
2017-10-22T21:54:43.245Z,89.29
2017-10-22T21:57:09.559Z,89.45
2017-10-22T21:59:35.860Z,88.73
2017-10-22T22:02:02.122Z,89.18
2017-10-22T22:04:28.393Z,89.24
2017-10-22T22:06:54.664Z,89.40
2017-10-22T22:09:20.991Z,88.84
2017-10-22T22:11:47.245Z,89.05
2017-10-22T22:14:13.504Z,89.47
2017-10-22T22:16:39.785Z,89.82
2017-10-22T22:19:06.040Z,89.01
2017-10-22T22:21:32.349Z,89.85
2017-10-22T22:23:58.607Z,89.91
2017-10-22T22:26:24.865Z,89.63
2017-10-22T22:28:51.187Z,89.67
2017-10-22T22:31:17.460Z,89.47
2017-10-22T22:33:43.762Z,89.70
2017-10-22T22:36:10.049Z,88.76
2017-10-22T22:38:36.334Z,87.73
2017-10-22T22:41:02.624Z,87.00
2017-10-22T22:43:28.940Z,87.01
2017-10-22T22:45:55.242Z,86.44
2017-10-22T22:48:21.508Z,86.01
2017-10-22T22:50:47.786Z,86.74
2017-10-22T22:53:14.070Z,86.29
2017-10-22T22:55:40.352Z,86.94
2017-10-22T22:58:06.653Z,86.86
2017-10-22T23:00:32.945Z,87.07
2017-10-22T23:02:59.222Z,86.84
2017-10-22T23:05:25.502Z,87.59
2017-10-22T23:07:51.773Z,87.51
2017-10-22T23:10:18.187Z,87.43
2017-10-22T23:12:44.467Z,87.68
2017-10-22T23:15:10.771Z,88.27
2017-10-22T23:17:37.116Z,87.99
2017-10-22T23:20:03.396Z,88.05
2017-10-22T23:22:29.663Z,88.58
2017-10-22T23:24:55.937Z,89.03
2017-10-22T23:27:22.219Z,87.87
2017-10-22T23:29:48.515Z,87.83
2017-10-22T23:32:14.795Z,87.31
2017-10-22T23:34:41.239Z,87.87
2017-10-22T23:37:07.638Z,87.77
2017-10-22T23:39:33.926Z,87.10
2017-10-22T23:42:00.247Z,86.43
2017-10-22T23:44:26.520Z,87.04
2017-10-22T23:46:52.842Z,86.60
2017-10-22T23:49:19.127Z,86.15
2017-10-22T23:51:45.405Z,83.73
2017-10-22T23:54:11.759Z,84.54
2017-10-22T23:56:38.026Z,85.28
2017-10-22T23:59:04.296Z,85.09
